Observations for LONDON GATWICK ARPT, United Kingdom (EGKK)

EGKK 231120Z 21008KT 7000 -DZRA BKN006 14/14 Q1017  
EGKK 231050Z 21006KT 7000 -RA BKN006 14/14 Q1018
EGKK 231020Z 21007KT 9000 -RA BKN005 14/13 Q1018
EGKK 230950Z 21007KT 6000 -DZRA BKN008 14/13 Q1018  
EGKK 230920Z 21006KT 6000 -DZRA BKN005 14/13 Q1018 REDZ 
EGKK 230850Z 21007KT 9000 -RADZ BKN007 13/12 Q1018  
EGKK 230820Z 21004KT 170V240 9999 BKN007 BKN014 13/11 Q1018 
EGKK 230750Z 20005KT 170V230 9999 FEW010 SCT018 BKN027 12/11 Q1018  
EGKK 230720Z 21006KT 9999 FEW024 SCT039 12/11 Q1018 
EGKK 230650Z 21007KT 9999 BKN039 11/10 Q1018
EGKK 230620Z 21005KT 9999 SCT045 11/09 Q1018
EGKK 230550Z 19004KT CAVOK 11/09 Q1018  
EGKK 230520Z 19005KT 9999 SCT038 11/09 Q1018
EGKK 230450Z 20005KT 9999 SCT040 11/09 Q1019
EGKK 230420Z 20005KT 9999 SCT040 10/09 Q1018
EGKK 230350Z 21005KT 9999 SCT038 10/09 Q1019
EGKK 230320Z 23007KT 9999 SCT042 11/09 Q1019
EGKK 230250Z 23008KT 9999 SCT042 11/09 Q1019
EGKK 230220Z 23008KT 9999 SCT032 11/09 Q1019
EGKK 230150Z 23007KT 9999 SCT045 10/08 Q1019
EGKK 230120Z 24007KT 9999 SCT045 10/08 Q1018
EGKK 230050Z 24008KT CAVOK 11/08 Q1018  
EGKK 230020Z 24008KT CAVOK 10/08 Q1018  
EGKK 222350Z 23007KT CAVOK 10/08 Q1018  
EGKK 222320Z 23006KT CAVOK 10/08 Q1018  
EGKK 222250Z 23005KT CAVOK 11/08 Q1018  
EGKK 222220Z 23007KT CAVOK 11/09 Q1018  
EGKK 222150Z 24007KT CAVOK 11/08 Q1018  
EGKK 222120Z 25008KT CAVOK 10/08 Q1018  
EGKK 222050Z 25008KT CAVOK 10/08 Q1018  
EGKK 222020Z 25007KT CAVOK 10/08 Q1018  
EGKK 221950Z 25006KT CAVOK 09/07 Q1018  
EGKK 221920Z 25008KT 9999 FEW026 09/08 Q1017
EGKK 221850Z 24007KT CAVOK 10/08 Q1017  
EGKK 221820Z 24007KT 9999 FEW040 10/08 Q1017
EGKK 221750Z 25008KT 9999 FEW035 10/08 Q1016
EGKK 221720Z 26012KT 9999 -SHRA FEW028 11/08 Q1016  
EGKK 221650Z 25010KT CAVOK 11/08 Q1016  
EGKK 221620Z 25012KT 9999 SCT037 11/07 Q1015
EGKK 221550Z 26011KT 9999 FEW020 SCT040 12/07 Q1015 
EGKK 221520Z 26015KT 9999 FEW035 13/06 Q1015
EGKK 221450Z 28016KT 9999 FEW041 13/06 Q1015
EGKK 221420Z 28016KT 9999 SCT043 14/05 Q1015
EGKK 221350Z 29017KT 9999 FEW045 14/04 Q1014
EGKK 221320Z 28015KT 9999 FEW044 14/04 Q1015
EGKK 221250Z 28016KT 9999 BKN043 13/04 Q1014
EGKK 221220Z 28018KT 9999 SCT032 13/04 Q1014
EGKK 221150Z 27018KT 9999 FEW032 SCT040 12/04 Q1014 
EGKK 221120Z 28017KT 9999 SCT035 12/05 Q1014
EGKK 221050Z 27019KT 9999 FEW032 12/05 Q1013